Forside
METAR-TAF:

METAR-TAF

Lufthavne :

Damaskus, Syrien

Breddekreds: 33-25N, længdekreds: 036-31E, højde: 608 m

Aktuelle vejr

Denne rapport blev lavet for 13 minutter siden, kl. 13:00 UTC
Vind 18 kt fra vest
Temperatur 34°C
Fugtighed 14%
Tryk 1012 hPa
Sigt 10 km eller mere
ingen skyer under 1500m og ingen cumulonimbus

METAR: OSDI 221300Z 27018KT CAVOK 34/03 Q1012

Tid: 16:13 (13:13 UTC)

Vejrudsigter

Foreløbig gælder fra 22 på 12 UTC til 23 på 18 UTC
Vind 15 kt fra vestsydvest med vindstød på up til 25 kt
Sigt 10 km eller mere
Nogle få skyer i en højde af 3000 ft
Midlertidig
fra 22 på 18 UTC til 23 på 12 UTC
Vind 10 kt fra sydvest
Sigt 10 km eller mere
ingen skyer under 1500m og ingen cumulonimbus

TAF: OSDI 2212/2318 25015G25KT 9999 FEW030 TEMPO 2218/2312 22010KT CAVOK

Vejrobservationer og prognoser fra mere end 4000 lufthavne (METAR og TAF).

De gule og røde prikker repræsenterer de meteorologiske stationer.

Flyt musen over at se navnet på stationen.

Så klik over at se vejr observationer og prognoser.

At skifte det kort: Klik på de grønne knapper med et sort kors for at zoome ind; på den grønne knap med en bindestreg for at zoome ud; eller på de grønne pile for tilstødende kort.


METAR-TAF: